UAE703H YPPH-OMDB
Flight info
| Callsign | UAE703H |
|---|---|
| Flight time | N/A |
| Altitude | 32000 |
| Route | OPEGA DCT UNDER DCT 27S107E 25S104E/N0498F340 DCT POLUM DCT 16S095E 10S090E 07S087E 05S085E DCT APOVU/N0492F360 DCT AKDOB DCT BIBGO L894 BOLUR/N0486F380 L894 KITAL P570 ITURA M762 VAXAS/N0447F240 M762 MIVEK P574 IMPED |
| Aircraft | B77W/H-SDE1E2E3FGHIJ2J3J4J5M1RWXY/LB1D1 |
Departure
| Time | 2026-05-07 23:33 |
|---|---|
| Airport | Perth International Airport (YPPH) |
Arrival
| Time | N/A |
|---|---|
| Airport | Dubai International Airport (OMDB) |
| Time | Latitude | Longitude | Altitude | Speed | Heading |
|---|---|---|---|---|---|
| 2026-05-07 23:26 | -31.94652 | 115.96922 | 54 ft | 0 kts | 195° |
| 2026-05-07 23:26 | -31.94655 | 115.96921 | 54 ft | 2 kts | 195° |
| 2026-05-07 23:26 | -31.94707 | 115.96905 | 54 ft | 13 kts | 195° |
| 2026-05-07 23:26 | -31.94770 | 115.96868 | 56 ft | 16 kts | 235° |
| 2026-05-07 23:27 | -31.94802 | 115.96630 | 58 ft | 16 kts | 205° |
| 2026-05-07 23:27 | -31.94932 | 115.96594 | 55 ft | 22 kts | 194° |
| 2026-05-07 23:27 | -31.95110 | 115.96543 | 55 ft | 31 kts | 193° |
| 2026-05-07 23:28 | -31.95340 | 115.96476 | 58 ft | 37 kts | 196° |
| 2026-05-07 23:28 | -31.95581 | 115.96407 | 59 ft | 34 kts | 194° |
| 2026-05-07 23:28 | -31.95798 | 115.96342 | 59 ft | 31 kts | 194° |
| 2026-05-07 23:28 | -31.95922 | 115.96231 | 60 ft | 16 kts | 276° |
| 2026-05-07 23:29 | -31.95889 | 115.96090 | 58 ft | 20 kts | 285° |
| 2026-05-07 23:29 | -31.95850 | 115.95900 | 55 ft | 15 kts | 291° |
| 2026-05-07 23:29 | -31.95847 | 115.95896 | 55 ft | 2 kts | 298° |
| 2026-05-07 23:29 | -31.95870 | 115.95949 | 55 ft | 12 kts | 296° |
| 2026-05-07 23:30 | -31.95870 | 115.95976 | 60 ft | 5 kts | 359° |
| 2026-05-07 23:30 | -31.95851 | 115.95979 | 52 ft | 0 kts | 13° |
| 2026-05-07 23:32 | -31.95765 | 115.96004 | 56 ft | 40 kts | 13° |
| 2026-05-07 23:32 | -31.95260 | 115.96150 | 54 ft | 111 kts | 14° |
| 2026-05-07 23:32 | -31.94291 | 115.96434 | 58 ft | 172 kts | 12° |
| 2026-05-07 23:33 | -31.93022 | 115.96787 | 239 ft | 194 kts | 16° |
| 2026-05-07 23:33 | -31.91708 | 115.97146 | 826 ft | 195 kts | 16° |
| 2026-05-07 23:33 | -31.90412 | 115.97497 | 1643 ft | 184 kts | 18° |
| 2026-05-07 23:33 | -31.89202 | 115.97780 | 2334 ft | 186 kts | 7° |
| 2026-05-07 23:34 | -31.87852 | 115.97342 | 2422 ft | 221 kts | 335° |
| 2026-05-07 23:34 | -31.86637 | 115.96037 | 2767 ft | 248 kts | 315° |
| 2026-05-07 23:34 | -31.85833 | 115.94185 | 3361 ft | 265 kts | 289° |
| 2026-05-07 23:34 | -31.85541 | 115.92027 | 3982 ft | 270 kts | 283° |
| 2026-05-07 23:35 | -31.85292 | 115.89806 | 4603 ft | 275 kts | 282° |
| 2026-05-07 23:35 | -31.85041 | 115.87592 | 5301 ft | 275 kts | 282° |
| 2026-05-07 23:35 | -31.84779 | 115.85348 | 5934 ft | 280 kts | 281° |
| 2026-05-07 23:35 | -31.84517 | 115.83168 | 6461 ft | 285 kts | 280° |
| 2026-05-07 23:36 | -31.84267 | 115.81128 | 6989 ft | 288 kts | 280° |
| 2026-05-07 23:36 | -31.83990 | 115.78889 | 7535 ft | 291 kts | 280° |
| 2026-05-07 23:36 | -31.83695 | 115.76530 | 8120 ft | 294 kts | 280° |
| 2026-05-07 23:36 | -31.83394 | 115.74143 | 8695 ft | 298 kts | 280° |
| 2026-05-07 23:37 | -31.83084 | 115.71707 | 9267 ft | 301 kts | 280° |
| 2026-05-07 23:37 | -31.82768 | 115.69235 | 9863 ft | 304 kts | 280° |
| 2026-05-07 23:37 | -31.82541 | 115.66751 | 10359 ft | 307 kts | 267° |
| 2026-05-07 23:37 | -31.83025 | 115.64469 | 10642 ft | 313 kts | 246° |
| 2026-05-07 23:38 | -31.83897 | 115.62088 | 10868 ft | 326 kts | 246° |
| 2026-05-07 23:38 | -31.84772 | 115.59603 | 11345 ft | 333 kts | 247° |
| 2026-05-07 23:38 | -31.85673 | 115.56983 | 11476 ft | 355 kts | 248° |
| 2026-05-07 23:38 | -31.86567 | 115.54196 | 11606 ft | 372 kts | 256° |
| 2026-05-07 23:39 | -31.86747 | 115.51159 | 11778 ft | 387 kts | 281° |
| 2026-05-07 23:39 | -31.86113 | 115.48227 | 12026 ft | 395 kts | 289° |
| 2026-05-07 23:39 | -31.85352 | 115.45186 | 12572 ft | 403 kts | 288° |
| 2026-05-07 23:39 | -31.84587 | 115.42028 | 13435 ft | 403 kts | 288° |
| 2026-05-07 23:40 | -31.83824 | 115.38802 | 14181 ft | 409 kts | 288° |
| 2026-05-07 23:40 | -31.83062 | 115.35555 | 14817 ft | 413 kts | 287° |
| 2026-05-07 23:40 | -31.82307 | 115.32316 | 15454 ft | 418 kts | 287° |
| 2026-05-07 23:40 | -31.81532 | 115.29003 | 16141 ft | 421 kts | 287° |
| 2026-05-07 23:41 | -31.80787 | 115.25683 | 16897 ft | 422 kts | 284° |
| 2026-05-07 23:41 | -31.80164 | 115.22243 | 17539 ft | 429 kts | 283° |
| 2026-05-07 23:41 | -31.79612 | 115.18825 | 18049 ft | 435 kts | 282° |
| 2026-05-07 23:41 | -31.79055 | 115.15305 | 18796 ft | 437 kts | 282° |
| 2026-05-07 23:42 | -31.78486 | 115.11778 | 19263 ft | 443 kts | 283° |
| 2026-05-07 23:42 | -31.77885 | 115.08157 | 19642 ft | 451 kts | 283° |
| 2026-05-07 23:42 | -31.77271 | 115.04532 | 20447 ft | 447 kts | 283° |
| 2026-05-07 23:42 | -31.76663 | 115.00964 | 21293 ft | 443 kts | 283° |
| 2026-05-07 23:43 | -31.76106 | 114.97698 | 21737 ft | 449 kts | 284° |
| 2026-05-07 23:43 | -31.75484 | 114.94083 | 22296 ft | 451 kts | 283° |
| 2026-05-07 23:43 | -31.74859 | 114.90431 | 22678 ft | 459 kts | 283° |
| 2026-05-07 23:43 | -31.74233 | 114.86796 | 23196 ft | 462 kts | 283° |
| 2026-05-07 23:44 | -31.73593 | 114.83079 | 23665 ft | 467 kts | 284° |
| 2026-05-07 23:44 | -31.72946 | 114.79336 | 24323 ft | 464 kts | 283° |
| 2026-05-07 23:44 | -31.72298 | 114.75586 | 24744 ft | 469 kts | 284° |
| 2026-05-07 23:44 | -31.71640 | 114.71784 | 24920 ft | 479 kts | 284° |
| 2026-05-07 23:45 | -31.70979 | 114.67982 | 25307 ft | 480 kts | 283° |
| 2026-05-07 23:45 | -31.70319 | 114.64180 | 26095 ft | 474 kts | 283° |
| 2026-05-07 23:45 | -31.69658 | 114.60370 | 26655 ft | 473 kts | 282° |
| 2026-05-07 23:45 | -31.69004 | 114.56613 | 27134 ft | 474 kts | 282° |
| 2026-05-07 23:46 | -31.68329 | 114.52748 | 27378 ft | 481 kts | 282° |
| 2026-05-07 23:46 | -31.67660 | 114.48916 | 27642 ft | 486 kts | 282° |
| 2026-05-07 23:46 | -31.66978 | 114.45027 | 28017 ft | 487 kts | 282° |
| 2026-05-07 23:46 | -31.66288 | 114.41101 | 28414 ft | 489 kts | 282° |
| 2026-05-07 23:47 | -31.65594 | 114.37153 | 28672 ft | 494 kts | 282° |
| 2026-05-07 23:47 | -31.64908 | 114.33260 | 29089 ft | 494 kts | 282° |
| 2026-05-07 23:47 | -31.64208 | 114.29300 | 29540 ft | 493 kts | 282° |
| 2026-05-07 23:47 | -31.63514 | 114.25378 | 29760 ft | 497 kts | 282° |
| 2026-05-07 23:48 | -31.62802 | 114.21356 | 30120 ft | 497 kts | 282° |
| 2026-05-07 23:48 | -31.62110 | 114.17464 | 30609 ft | 493 kts | 282° |
| 2026-05-07 23:48 | -31.61407 | 114.13510 | 30980 ft | 493 kts | 282° |
| 2026-05-07 23:48 | -31.60704 | 114.09569 | 31312 ft | 491 kts | 281° |
| 2026-05-07 23:49 | -31.60002 | 114.05638 | 31640 ft | 491 kts | 281° |
| 2026-05-07 23:49 | -31.59299 | 114.01708 | 31926 ft | 491 kts | 281° |
| 2026-05-07 23:49 | -31.58680 | 113.98258 | 32249 ft | 489 kts | 281° |
| 2026-05-07 23:49 | -31.57978 | 113.94348 | 32388 ft | 491 kts | 281° |
| 2026-05-07 23:50 | -31.56570 | 113.86522 | 32359 ft | 487 kts | 281° |
| 2026-05-07 23:50 | -31.55175 | 113.78807 | 32359 ft | 486 kts | 281° |
| 2026-05-07 23:51 | -31.53767 | 113.71044 | 32366 ft | 486 kts | 281° |
| 2026-05-07 23:51 | -31.52361 | 113.63321 | 32361 ft | 486 kts | 281° |
| 2026-05-07 23:52 | -31.50947 | 113.55577 | 32352 ft | 487 kts | 281° |
| 2026-05-07 23:52 | -31.49524 | 113.47810 | 32350 ft | 487 kts | 281° |
| 2026-05-07 23:53 | -31.48065 | 113.40025 | 32340 ft | 488 kts | 285° |
| 2026-05-07 23:53 | -31.46787 | 113.36387 | 32330 ft | 489 kts | 302° |
| 2026-05-07 23:53 | -31.44697 | 113.33270 | 32358 ft | 487 kts | 310° |
| 2026-05-07 23:54 | -31.40246 | 113.27221 | 32348 ft | 489 kts | 309° |
| 2026-05-07 23:54 | -31.35897 | 113.21147 | 32348 ft | 490 kts | 309° |
| 2026-05-07 23:55 | -31.31533 | 113.14970 | 32340 ft | 492 kts | 308° |
| 2026-05-07 23:55 | -31.27180 | 113.08797 | 32336 ft | 491 kts | 308° |
| 2026-05-07 23:56 | -31.22851 | 113.02675 | 32329 ft | 491 kts | 308° |
| 2026-05-07 23:56 | -31.18686 | 112.96799 | 32335 ft | 490 kts | 308° |
| 2026-05-07 23:57 | -31.14354 | 112.90695 | 32328 ft | 489 kts | 309° |
| 2026-05-07 23:57 | -31.10007 | 112.84582 | 32319 ft | 489 kts | 309° |
| 2026-05-07 23:58 | -31.05675 | 112.78499 | 32323 ft | 489 kts | 308° |
| 2026-05-07 23:58 | -31.01308 | 112.72378 | 32323 ft | 489 kts | 308° |
| 2026-05-07 23:59 | -30.96998 | 112.66343 | 32315 ft | 489 kts | 308° |
| 2026-05-07 23:59 | -30.92616 | 112.60219 | 32316 ft | 489 kts | 309° |
| 2026-05-08 00:00 | -30.88282 | 112.54172 | 32306 ft | 489 kts | 309° |
| 2026-05-08 00:00 | -30.83917 | 112.48091 | 32310 ft | 489 kts | 308° |
| 2026-05-08 00:01 | -30.79541 | 112.42005 | 32302 ft | 488 kts | 308° |
| 2026-05-08 00:01 | -30.75205 | 112.35985 | 32303 ft | 487 kts | 308° |
| 2026-05-08 00:02 | -30.70841 | 112.29933 | 32294 ft | 487 kts | 308° |
| 2026-05-08 00:02 | -30.66490 | 112.23911 | 32295 ft | 486 kts | 308° |
| 2026-05-08 00:03 | -30.62159 | 112.17927 | 32293 ft | 486 kts | 308° |
| 2026-05-08 00:03 | -30.57797 | 112.11902 | 32292 ft | 485 kts | 307° |
| 2026-05-08 00:04 | -30.53462 | 112.05928 | 32287 ft | 485 kts | 307° |
| 2026-05-08 00:04 | -30.49125 | 111.99962 | 32288 ft | 485 kts | 307° |
| 2026-05-08 00:05 | -30.44978 | 111.94262 | 32281 ft | 485 kts | 308° |
| 2026-05-08 00:05 | -30.40623 | 111.88287 | 32282 ft | 484 kts | 307° |
| 2026-05-08 00:06 | -30.36287 | 111.82344 | 32277 ft | 484 kts | 307° |
| 2026-05-08 00:06 | -30.31929 | 111.76382 | 32279 ft | 483 kts | 308° |
| 2026-05-08 00:07 | -30.27588 | 111.70456 | 32275 ft | 483 kts | 307° |
| 2026-05-08 00:07 | -30.23264 | 111.64555 | 32278 ft | 483 kts | 308° |
| 2026-05-08 00:08 | -30.18908 | 111.58624 | 32288 ft | 483 kts | 307° |
| 2026-05-08 00:08 | -30.14558 | 111.52708 | 32260 ft | 482 kts | 308° |
| 2026-05-08 00:09 | -30.10231 | 111.46835 | 32277 ft | 481 kts | 308° |
| 2026-05-08 00:09 | -30.05865 | 111.40918 | 32256 ft | 481 kts | 307° |
| 2026-05-08 00:10 | -30.01547 | 111.35073 | 32267 ft | 481 kts | 308° |
| 2026-05-08 00:10 | -29.97207 | 111.29208 | 32252 ft | 481 kts | 308° |
| 2026-05-08 00:11 | -29.92849 | 111.23324 | 32268 ft | 481 kts | 308° |
| 2026-05-08 00:11 | -29.88518 | 111.17489 | 32264 ft | 481 kts | 308° |
| 2026-05-08 00:12 | -29.84888 | 111.12603 | 32260 ft | 481 kts | 308° |
| 2026-05-08 00:12 | -29.79825 | 111.05797 | 32243 ft | 481 kts | 308° |
| 2026-05-08 00:13 | -29.76175 | 111.00899 | 32252 ft | 481 kts | 308° |
| 2026-05-08 00:13 | -29.72044 | 110.95363 | 32250 ft | 481 kts | 308° |
| 2026-05-08 00:14 | -29.67670 | 110.89509 | 32245 ft | 481 kts | 308° |
| 2026-05-08 00:14 | -29.63305 | 110.83675 | 32239 ft | 481 kts | 308° |
| 2026-05-08 00:15 | -29.58948 | 110.77861 | 32241 ft | 481 kts | 308° |
| 2026-05-08 00:15 | -29.54580 | 110.72039 | 32230 ft | 481 kts | 308° |
| 2026-05-08 00:16 | -29.50196 | 110.66207 | 32240 ft | 482 kts | 308° |
| 2026-05-08 00:16 | -29.45824 | 110.60398 | 32231 ft | 482 kts | 308° |
| 2026-05-08 00:17 | -29.41436 | 110.54576 | 32229 ft | 482 kts | 308° |
| 2026-05-08 00:17 | -29.37059 | 110.48778 | 32227 ft | 482 kts | 308° |
| 2026-05-08 00:18 | -29.32662 | 110.42961 | 32221 ft | 482 kts | 308° |
| 2026-05-08 00:18 | -29.28276 | 110.37166 | 32228 ft | 481 kts | 308° |
| 2026-05-08 00:19 | -29.23910 | 110.31406 | 32226 ft | 481 kts | 308° |
| 2026-05-08 00:19 | -29.19509 | 110.25609 | 32225 ft | 481 kts | 308° |
| 2026-05-08 00:20 | -29.15127 | 110.19844 | 32221 ft | 481 kts | 308° |
| 2026-05-08 00:20 | -29.10726 | 110.14062 | 32220 ft | 481 kts | 308° |
| 2026-05-08 00:21 | -29.06333 | 110.08297 | 32218 ft | 481 kts | 308° |
| 2026-05-08 00:21 | -29.01940 | 110.02541 | 32218 ft | 481 kts | 308° |
| 2026-05-08 00:22 | -28.97926 | 109.96888 | 32223 ft | 479 kts | 304° |
| 2026-05-08 00:22 | -28.93991 | 109.90753 | 32211 ft | 479 kts | 303° |
| 2026-05-08 00:23 | -28.90048 | 109.84595 | 32213 ft | 480 kts | 304° |
| 2026-05-08 00:23 | -28.86093 | 109.78455 | 32197 ft | 480 kts | 303° |
| 2026-05-08 00:24 | -28.82147 | 109.72356 | 32207 ft | 480 kts | 304° |
| 2026-05-08 00:24 | -28.78176 | 109.66232 | 32204 ft | 480 kts | 304° |
| 2026-05-08 00:25 | -28.74200 | 109.60108 | 32204 ft | 480 kts | 304° |
| 2026-05-08 00:25 | -28.70207 | 109.53966 | 32200 ft | 480 kts | 304° |
| 2026-05-08 00:26 | -28.66239 | 109.47872 | 32194 ft | 480 kts | 304° |
| 2026-05-08 00:26 | -28.62271 | 109.41786 | 32197 ft | 480 kts | 303° |
| 2026-05-08 00:27 | -28.58278 | 109.35670 | 32194 ft | 480 kts | 304° |
| 2026-05-08 00:27 | -28.54307 | 109.29596 | 32193 ft | 480 kts | 304° |
| 2026-05-08 00:28 | -28.50312 | 109.23495 | 32190 ft | 480 kts | 304° |
| 2026-05-08 00:28 | -28.46332 | 109.17426 | 32190 ft | 480 kts | 304° |
| 2026-05-08 00:29 | -28.42353 | 109.11366 | 32173 ft | 480 kts | 303° |
| 2026-05-08 00:29 | -28.38351 | 109.05281 | 32184 ft | 479 kts | 303° |
| 2026-05-08 00:30 | -28.34534 | 108.99486 | 32181 ft | 478 kts | 303° |
| 2026-05-08 00:30 | -28.30583 | 108.93495 | 32180 ft | 478 kts | 303° |
| 2026-05-08 00:31 | -28.26583 | 108.87436 | 32179 ft | 477 kts | 303° |
| 2026-05-08 00:31 | -28.22599 | 108.81412 | 32171 ft | 477 kts | 303° |
| 2026-05-08 00:32 | -28.18629 | 108.75418 | 32162 ft | 477 kts | 303° |
| 2026-05-08 00:32 | -28.14648 | 108.69415 | 32165 ft | 477 kts | 303° |
| 2026-05-08 00:33 | -28.10650 | 108.63394 | 32166 ft | 477 kts | 303° |
| 2026-05-08 00:33 | -28.06672 | 108.57412 | 32166 ft | 478 kts | 303° |
| 2026-05-08 00:34 | -28.02660 | 108.51387 | 32166 ft | 478 kts | 303° |
| 2026-05-08 00:34 | -27.98656 | 108.45385 | 32166 ft | 478 kts | 303° |
| 2026-05-08 00:35 | -27.94669 | 108.39415 | 32172 ft | 477 kts | 302° |
| 2026-05-08 00:35 | -27.90656 | 108.33414 | 32170 ft | 476 kts | 302° |
| 2026-05-08 00:36 | -27.86686 | 108.27486 | 32152 ft | 476 kts | 302° |
| 2026-05-08 00:36 | -27.82678 | 108.21509 | 32168 ft | 475 kts | 302° |
| 2026-05-08 00:37 | -27.78690 | 108.15570 | 32173 ft | 475 kts | 302° |
| 2026-05-08 00:38 | -27.72692 | 108.06654 | 32163 ft | 475 kts | 302° |
| 2026-05-08 00:38 | -27.68709 | 108.00743 | 32164 ft | 474 kts | 302° |
| 2026-05-08 00:39 | -27.64899 | 107.95096 | 32164 ft | 474 kts | 302° |
| 2026-05-08 00:39 | -27.60917 | 107.89202 | 32164 ft | 474 kts | 302° |
| 2026-05-08 00:40 | -27.56918 | 107.83290 | 32164 ft | 474 kts | 302° |
| 2026-05-08 00:40 | -27.52902 | 107.77362 | 32164 ft | 474 kts | 302° |
| 2026-05-08 00:41 | -27.48923 | 107.71497 | 32153 ft | 473 kts | 302° |
| 2026-05-08 00:41 | -27.44922 | 107.65608 | 32154 ft | 471 kts | 302° |
| 2026-05-08 00:42 | -27.40966 | 107.59792 | 32156 ft | 469 kts | 302° |
| 2026-05-08 00:42 | -27.36998 | 107.53966 | 32158 ft | 468 kts | 302° |
| 2026-05-08 00:43 | -27.33032 | 107.48149 | 32158 ft | 468 kts | 302° |
| 2026-05-08 00:43 | -27.29085 | 107.42368 | 32158 ft | 468 kts | 302° |
| 2026-05-08 00:44 | -27.25123 | 107.36573 | 32141 ft | 467 kts | 302° |
| 2026-05-08 00:44 | -27.21158 | 107.30783 | 32149 ft | 465 kts | 301° |
| 2026-05-08 00:45 | -27.17238 | 107.25066 | 32152 ft | 463 kts | 301° |
| 2026-05-08 00:45 | -27.13304 | 107.19333 | 32154 ft | 462 kts | 301° |
| 2026-05-08 00:46 | -27.09393 | 107.13642 | 32156 ft | 461 kts | 302° |
| 2026-05-08 00:46 | -27.05471 | 107.07941 | 32155 ft | 462 kts | 302° |
| 2026-05-08 00:47 | -27.01524 | 107.02211 | 32139 ft | 463 kts | 301° |
| 2026-05-08 00:47 | -26.97840 | 106.96775 | 32148 ft | 463 kts | 300° |
| 2026-05-08 00:48 | -26.94065 | 106.90910 | 32157 ft | 464 kts | 299° |
| 2026-05-08 00:48 | -26.90301 | 106.85025 | 32155 ft | 465 kts | 299° |
| 2026-05-08 00:49 | -26.86521 | 106.79159 | 32154 ft | 465 kts | 300° |
| 2026-05-08 00:49 | -26.82730 | 106.73309 | 32156 ft | 465 kts | 300° |
| 2026-05-08 00:50 | -26.78919 | 106.67444 | 32143 ft | 465 kts | 299° |
| 2026-05-08 00:50 | -26.75101 | 106.61573 | 32152 ft | 465 kts | 299° |
| 2026-05-08 00:51 | -26.71303 | 106.55738 | 32150 ft | 465 kts | 299° |
| 2026-05-08 00:51 | -26.67514 | 106.49925 | 32154 ft | 465 kts | 299° |
| 2026-05-08 00:52 | -26.63697 | 106.44077 | 32150 ft | 465 kts | 299° |
| 2026-05-08 00:52 | -26.59893 | 106.38255 | 32148 ft | 465 kts | 299° |
| 2026-05-08 00:53 | -26.56073 | 106.32417 | 32147 ft | 465 kts | 299° |
| 2026-05-08 00:53 | -26.52243 | 106.26573 | 32123 ft | 464 kts | 299° |
| 2026-05-08 00:54 | -26.48449 | 106.20792 | 32146 ft | 462 kts | 298° |
| 2026-05-08 00:54 | -26.44658 | 106.15022 | 32149 ft | 461 kts | 298° |
| 2026-05-08 00:55 | -26.40871 | 106.09262 | 32145 ft | 460 kts | 298° |
| 2026-05-08 00:55 | -26.37101 | 106.03536 | 32147 ft | 459 kts | 298° |
| 2026-05-08 00:56 | -26.33481 | 105.98046 | 32150 ft | 459 kts | 298° |
| 2026-05-08 00:56 | -26.29711 | 105.92335 | 32128 ft | 459 kts | 298° |
| 2026-05-08 00:57 | -26.25916 | 105.86594 | 32130 ft | 459 kts | 298° |
| 2026-05-08 00:57 | -26.22144 | 105.80895 | 32142 ft | 458 kts | 298° |
| 2026-05-08 00:58 | -26.18998 | 105.76146 | 32145 ft | 457 kts | 298° |
| 2026-05-08 00:58 | -26.15208 | 105.70432 | 32144 ft | 457 kts | 298° |
| 2026-05-08 00:59 | -26.11436 | 105.64752 | 32139 ft | 457 kts | 298° |
| 2026-05-08 00:59 | -26.07646 | 105.59052 | 32134 ft | 458 kts | 298° |
| 2026-05-08 01:00 | -26.03864 | 105.53369 | 32143 ft | 459 kts | 298° |
| 2026-05-08 01:00 | -26.00055 | 105.47656 | 32135 ft | 458 kts | 298° |
| 2026-05-08 01:01 | -25.96298 | 105.42027 | 32135 ft | 459 kts | 299° |
| 2026-05-08 01:01 | -25.92483 | 105.36318 | 32138 ft | 459 kts | 299° |
| 2026-05-08 01:02 | -25.88681 | 105.30637 | 32137 ft | 459 kts | 299° |
| 2026-05-08 01:02 | -25.84855 | 105.24925 | 32131 ft | 460 kts | 299° |
| 2026-05-08 01:03 | -25.81055 | 105.19257 | 32127 ft | 461 kts | 299° |
| 2026-05-08 01:03 | -25.77211 | 105.13532 | 32131 ft | 461 kts | 299° |
| 2026-05-08 01:04 | -25.73394 | 105.07856 | 32140 ft | 462 kts | 299° |
| 2026-05-08 01:04 | -25.69545 | 105.02138 | 32135 ft | 462 kts | 299° |
| 2026-05-08 01:05 | -25.65864 | 104.96677 | 32129 ft | 463 kts | 300° |
| 2026-05-08 01:05 | -25.62028 | 104.90992 | 32114 ft | 463 kts | 300° |
| 2026-05-08 01:06 | -25.58143 | 104.85241 | 32130 ft | 464 kts | 300° |
| 2026-05-08 01:06 | -25.54288 | 104.79542 | 32133 ft | 466 kts | 300° |
| 2026-05-08 01:07 | -25.50386 | 104.73780 | 32107 ft | 467 kts | 300° |
| 2026-05-08 01:07 | -25.46489 | 104.68034 | 32133 ft | 467 kts | 300° |
| 2026-05-08 01:08 | -25.42599 | 104.62304 | 32126 ft | 468 kts | 300° |
| 2026-05-08 01:08 | -25.38677 | 104.56535 | 32129 ft | 468 kts | 300° |
| 2026-05-08 01:09 | -25.34766 | 104.50788 | 32127 ft | 467 kts | 300° |
| 2026-05-08 01:09 | -25.30864 | 104.45062 | 32129 ft | 467 kts | 300° |
| 2026-05-08 01:10 | -25.26951 | 104.39327 | 32123 ft | 467 kts | 300° |
| 2026-05-08 01:10 | -25.23052 | 104.33618 | 32103 ft | 466 kts | 300° |
| 2026-05-08 01:11 | -25.19142 | 104.27900 | 32121 ft | 465 kts | 300° |
| 2026-05-08 01:11 | -25.15239 | 104.22200 | 32123 ft | 465 kts | 300° |
| 2026-05-08 01:12 | -25.11361 | 104.16541 | 32122 ft | 465 kts | 301° |
| 2026-05-08 01:12 | -25.07437 | 104.10821 | 32118 ft | 466 kts | 301° |
| 2026-05-08 01:13 | -25.03544 | 104.05153 | 32119 ft | 467 kts | 301° |
| 2026-05-08 01:13 | -24.99716 | 103.99672 | 32120 ft | 470 kts | 303° |
| 2026-05-08 01:14 | -24.95302 | 103.94490 | 32120 ft | 473 kts | 307° |
| 2026-05-08 01:14 | -24.90730 | 103.89284 | 32119 ft | 473 kts | 307° |
| 2026-05-08 01:15 | -24.86169 | 103.84070 | 32107 ft | 472 kts | 307° |
| 2026-05-08 01:15 | -24.81643 | 103.78875 | 32117 ft | 471 kts | 307° |
| 2026-05-08 01:16 | -24.77094 | 103.73650 | 32115 ft | 472 kts | 307° |
| 2026-05-08 01:16 | -24.72545 | 103.68429 | 32116 ft | 472 kts | 307° |
| 2026-05-08 01:17 | -24.68016 | 103.63239 | 32100 ft | 472 kts | 307° |
| 2026-05-08 01:17 | -24.63450 | 103.58014 | 32103 ft | 471 kts | 307° |
| 2026-05-08 01:18 | -24.58908 | 103.52822 | 32105 ft | 471 kts | 307° |
| 2026-05-08 01:18 | -24.54394 | 103.47667 | 32100 ft | 470 kts | 307° |
| 2026-05-08 01:19 | -24.49835 | 103.42466 | 32103 ft | 471 kts | 307° |
| 2026-05-08 01:19 | -24.45305 | 103.37304 | 32124 ft | 471 kts | 307° |
| 2026-05-08 01:20 | -24.40760 | 103.32131 | 32095 ft | 471 kts | 307° |
| 2026-05-08 01:20 | -24.36232 | 103.26985 | 32104 ft | 470 kts | 307° |
| 2026-05-08 01:21 | -24.31675 | 103.21810 | 32107 ft | 470 kts | 307° |
| 2026-05-08 01:21 | -24.27151 | 103.16677 | 32107 ft | 470 kts | 307° |
| 2026-05-08 01:22 | -24.22595 | 103.11515 | 32098 ft | 470 kts | 308° |
| 2026-05-08 01:22 | -24.18033 | 103.06350 | 32098 ft | 470 kts | 308° |
| 2026-05-08 01:23 | -24.13498 | 103.01223 | 32103 ft | 471 kts | 308° |
| 2026-05-08 01:23 | -24.09140 | 102.96301 | 32105 ft | 471 kts | 308° |
| 2026-05-08 01:24 | -24.04596 | 102.91174 | 32100 ft | 471 kts | 308° |
| 2026-05-08 01:24 | -24.00041 | 102.86041 | 32102 ft | 471 kts | 308° |
| 2026-05-08 01:25 | -23.95481 | 102.80907 | 32100 ft | 471 kts | 308° |
| 2026-05-08 01:25 | -23.90922 | 102.75780 | 32094 ft | 472 kts | 308° |
| 2026-05-08 01:26 | -23.86344 | 102.70637 | 32093 ft | 471 kts | 308° |
| 2026-05-08 01:26 | -23.81791 | 102.65528 | 32088 ft | 470 kts | 308° |
| 2026-05-08 01:27 | -23.77218 | 102.60403 | 32095 ft | 470 kts | 308° |
| 2026-05-08 01:27 | -23.72671 | 102.55311 | 32092 ft | 469 kts | 308° |
| 2026-05-08 01:28 | -23.68116 | 102.50216 | 32094 ft | 469 kts | 308° |
| 2026-05-08 01:28 | -23.63533 | 102.45095 | 32096 ft | 469 kts | 308° |
| 2026-05-08 01:29 | -23.58998 | 102.40032 | 32086 ft | 470 kts | 308° |
| 2026-05-08 01:29 | -23.54425 | 102.34933 | 32082 ft | 469 kts | 308° |
| 2026-05-08 01:30 | -23.49849 | 102.29837 | 32081 ft | 469 kts | 308° |
| 2026-05-08 01:30 | -23.45295 | 102.24769 | 32090 ft | 469 kts | 308° |
| 2026-05-08 01:31 | -23.40734 | 102.19700 | 32094 ft | 468 kts | 308° |
| 2026-05-08 01:31 | -23.36186 | 102.14650 | 32084 ft | 468 kts | 308° |
| 2026-05-08 01:32 | -23.31620 | 102.09585 | 32085 ft | 468 kts | 308° |
| 2026-05-08 01:32 | -23.27041 | 102.04512 | 32069 ft | 468 kts | 308° |
| 2026-05-08 01:33 | -23.22628 | 101.99627 | 32088 ft | 467 kts | 308° |
| 2026-05-08 01:33 | -23.18162 | 101.94689 | 32087 ft | 467 kts | 308° |
| 2026-05-08 01:34 | -23.13597 | 101.89646 | 32082 ft | 466 kts | 308° |
| 2026-05-08 01:34 | -23.09040 | 101.84618 | 32085 ft | 466 kts | 308° |
| 2026-05-08 01:35 | -23.04499 | 101.79611 | 32081 ft | 466 kts | 308° |
| 2026-05-08 01:35 | -22.99969 | 101.74623 | 32082 ft | 466 kts | 308° |
| 2026-05-08 01:36 | -22.95434 | 101.69634 | 32076 ft | 466 kts | 308° |
| 2026-05-08 01:36 | -22.90882 | 101.64631 | 32069 ft | 465 kts | 309° |
| 2026-05-08 01:37 | -22.86354 | 101.59660 | 32077 ft | 464 kts | 309° |
| 2026-05-08 01:37 | -22.81813 | 101.54680 | 32079 ft | 464 kts | 309° |
| 2026-05-08 01:38 | -22.77269 | 101.49700 | 32076 ft | 464 kts | 309° |
| 2026-05-08 01:38 | -22.72737 | 101.44740 | 32076 ft | 464 kts | 309° |
| 2026-05-08 01:39 | -22.68209 | 101.39788 | 32066 ft | 464 kts | 308° |
| 2026-05-08 01:39 | -22.63670 | 101.34831 | 32071 ft | 462 kts | 308° |
| 2026-05-08 01:40 | -22.59163 | 101.29913 | 32079 ft | 461 kts | 308° |
| 2026-05-08 01:40 | -22.54654 | 101.24997 | 32073 ft | 459 kts | 308° |
| 2026-05-08 01:41 | -22.50134 | 101.20074 | 32072 ft | 459 kts | 308° |
| 2026-05-08 01:41 | -22.45657 | 101.15201 | 32074 ft | 459 kts | 308° |
| 2026-05-08 01:42 | -22.41141 | 101.10292 | 32070 ft | 459 kts | 308° |
| 2026-05-08 01:42 | -22.36633 | 101.05396 | 32065 ft | 458 kts | 308° |
| 2026-05-08 01:43 | -22.32129 | 101.00510 | 32135 ft | 460 kts | 308° |
| 2026-05-08 01:43 | -22.30101 | 100.98311 | 32368 ft | 459 kts | 308° |
| 2026-05-08 01:43 | -22.27854 | 100.95878 | 32770 ft | 455 kts | 308° |
| 2026-05-08 01:43 | -22.25611 | 100.93453 | 33232 ft | 451 kts | 308° |
| 2026-05-08 01:44 | -22.23408 | 100.91071 | 33653 ft | 447 kts | 307° |
| 2026-05-08 01:44 | -22.21235 | 100.88723 | 34036 ft | 444 kts | 307° |
| 2026-05-08 01:44 | -22.19059 | 100.86367 | 34050 ft | 447 kts | 307° |
| 2026-05-08 01:45 | -22.15398 | 100.82404 | 34063 ft | 445 kts | 307° |
| 2026-05-08 01:45 | -22.11018 | 100.77672 | 34064 ft | 443 kts | 307° |
| 2026-05-08 01:46 | -22.06689 | 100.73001 | 34071 ft | 442 kts | 307° |
| 2026-05-08 01:46 | -22.02339 | 100.68310 | 34076 ft | 442 kts | 307° |
| 2026-05-08 01:47 | -21.98019 | 100.63656 | 34074 ft | 442 kts | 307° |
| 2026-05-08 01:47 | -21.93679 | 100.58985 | 34079 ft | 443 kts | 307° |
| 2026-05-08 01:48 | -21.87131 | 100.51947 | 34071 ft | 444 kts | 307° |
| 2026-05-08 01:48 | -21.82759 | 100.47253 | 34064 ft | 444 kts | 307° |
| 2026-05-08 01:49 | -21.78361 | 100.42537 | 34044 ft | 445 kts | 307° |
| 2026-05-08 01:49 | -21.73993 | 100.37856 | 34056 ft | 445 kts | 307° |
| 2026-05-08 01:50 | -21.69593 | 100.33144 | 34067 ft | 446 kts | 307° |
| 2026-05-08 01:50 | -21.65192 | 100.28437 | 34067 ft | 446 kts | 307° |
| 2026-05-08 01:51 | -21.60789 | 100.23732 | 34059 ft | 447 kts | 307° |
| 2026-05-08 01:51 | -21.56381 | 100.19026 | 34057 ft | 447 kts | 307° |
| 2026-05-08 01:52 | -21.51982 | 100.14334 | 34059 ft | 447 kts | 307° |
| 2026-05-08 01:52 | -21.47581 | 100.09644 | 34042 ft | 447 kts | 308° |
| 2026-05-08 01:53 | -21.43150 | 100.04924 | 34066 ft | 447 kts | 308° |
| 2026-05-08 01:53 | -21.38760 | 100.00253 | 34061 ft | 448 kts | 308° |
| 2026-05-08 01:54 | -21.34511 | 99.95738 | 34058 ft | 448 kts | 308° |
| 2026-05-08 01:54 | -21.30101 | 99.91054 | 34058 ft | 449 kts | 308° |
| 2026-05-08 01:55 | -21.25652 | 99.86334 | 34057 ft | 449 kts | 308° |
| 2026-05-08 01:55 | -21.21217 | 99.81632 | 34054 ft | 449 kts | 308° |
| 2026-05-08 01:56 | -21.16779 | 99.76932 | 34061 ft | 448 kts | 308° |
| 2026-05-08 01:56 | -21.12365 | 99.72262 | 34056 ft | 448 kts | 308° |
| 2026-05-08 01:57 | -21.07912 | 99.67554 | 34054 ft | 448 kts | 308° |
| 2026-05-08 01:57 | -21.03498 | 99.62891 | 34058 ft | 447 kts | 308° |
| 2026-05-08 01:58 | -20.99099 | 99.58248 | 34055 ft | 447 kts | 308° |
| 2026-05-08 01:58 | -20.94658 | 99.53565 | 34054 ft | 447 kts | 308° |
| 2026-05-08 01:59 | -20.90246 | 99.48916 | 34054 ft | 447 kts | 308° |
| 2026-05-08 01:59 | -20.85796 | 99.44232 | 34041 ft | 447 kts | 308° |
| 2026-05-08 02:00 | -20.81359 | 99.39568 | 34053 ft | 448 kts | 308° |
| 2026-05-08 02:00 | -20.76945 | 99.34928 | 34059 ft | 448 kts | 308° |
| 2026-05-08 02:01 | -20.72498 | 99.30259 | 34054 ft | 449 kts | 308° |
| 2026-05-08 02:01 | -20.68034 | 99.25576 | 34051 ft | 449 kts | 308° |
| 2026-05-08 02:02 | -20.63588 | 99.20917 | 34050 ft | 449 kts | 308° |
| 2026-05-08 02:02 | -20.59115 | 99.16233 | 34049 ft | 449 kts | 308° |
| 2026-05-08 02:03 | -20.54658 | 99.11570 | 34036 ft | 449 kts | 309° |
| 2026-05-08 02:03 | -20.50210 | 99.06920 | 34045 ft | 448 kts | 309° |
| 2026-05-08 02:04 | -20.45740 | 99.02252 | 34050 ft | 448 kts | 309° |
| 2026-05-08 02:04 | -20.41499 | 98.97826 | 34050 ft | 447 kts | 309° |
| 2026-05-08 02:05 | -20.37060 | 98.93198 | 34044 ft | 447 kts | 309° |
| 2026-05-08 02:05 | -20.32603 | 98.88554 | 34046 ft | 447 kts | 309° |
| 2026-05-08 02:06 | -20.28168 | 98.83938 | 34050 ft | 447 kts | 309° |
| 2026-05-08 02:06 | -20.23707 | 98.79297 | 34034 ft | 447 kts | 309° |
| 2026-05-08 02:07 | -20.19288 | 98.74706 | 34041 ft | 446 kts | 309° |
| 2026-05-08 02:07 | -20.14854 | 98.70101 | 34042 ft | 446 kts | 309° |
| 2026-05-08 02:08 | -20.10416 | 98.65496 | 34043 ft | 445 kts | 309° |
| 2026-05-08 02:08 | -20.05974 | 98.60890 | 34040 ft | 445 kts | 309° |
| 2026-05-08 02:09 | -20.01545 | 98.56302 | 34041 ft | 445 kts | 309° |
| 2026-05-08 02:09 | -19.97002 | 98.51898 | 34044 ft | 448 kts | 313° |
| 2026-05-08 02:10 | -19.92263 | 98.47585 | 34022 ft | 449 kts | 313° |
| 2026-05-08 02:10 | -19.87484 | 98.43249 | 34044 ft | 450 kts | 313° |
| 2026-05-08 02:11 | -19.82741 | 98.38929 | 34037 ft | 452 kts | 313° |
| 2026-05-08 02:11 | -19.77946 | 98.34556 | 34037 ft | 453 kts | 313° |
| 2026-05-08 02:12 | -19.73173 | 98.30204 | 34036 ft | 455 kts | 313° |
| 2026-05-08 02:12 | -19.68365 | 98.25824 | 34036 ft | 455 kts | 313° |
| 2026-05-08 02:13 | -19.63555 | 98.21447 | 34035 ft | 455 kts | 313° |
| 2026-05-08 02:13 | -19.58769 | 98.17095 | 34022 ft | 455 kts | 313° |
| 2026-05-08 02:14 | -19.53942 | 98.12707 | 34038 ft | 456 kts | 313° |
| 2026-05-08 02:14 | -19.49144 | 98.08351 | 34042 ft | 458 kts | 313° |
| 2026-05-08 02:15 | -19.44294 | 98.03951 | 34028 ft | 459 kts | 313° |
| 2026-05-08 02:15 | -19.39594 | 97.99691 | 34035 ft | 459 kts | 313° |
| 2026-05-08 02:16 | -19.34814 | 97.95362 | 34036 ft | 459 kts | 314° |
| 2026-05-08 02:16 | -19.29959 | 97.90969 | 34024 ft | 458 kts | 314° |
| 2026-05-08 02:17 | -19.25118 | 97.86592 | 34024 ft | 457 kts | 314° |
| 2026-05-08 02:17 | -19.20289 | 97.82228 | 34028 ft | 458 kts | 314° |
| 2026-05-08 02:18 | -19.15449 | 97.77857 | 34032 ft | 460 kts | 314° |
| 2026-05-08 02:18 | -19.10566 | 97.73451 | 34032 ft | 461 kts | 314° |
| 2026-05-08 02:19 | -19.05698 | 97.69063 | 34024 ft | 461 kts | 314° |
| 2026-05-08 02:19 | -19.00794 | 97.64647 | 34027 ft | 462 kts | 314° |
| 2026-05-08 02:20 | -18.95959 | 97.60296 | 33998 ft | 462 kts | 314° |
| 2026-05-08 02:20 | -18.91040 | 97.55872 | 34017 ft | 462 kts | 314° |
| 2026-05-08 02:21 | -18.86158 | 97.51485 | 34023 ft | 463 kts | 314° |
| 2026-05-08 02:21 | -18.81228 | 97.47059 | 34023 ft | 464 kts | 314° |
| 2026-05-08 02:22 | -18.76323 | 97.42659 | 34022 ft | 464 kts | 314° |
| 2026-05-08 02:22 | -18.71403 | 97.38250 | 34022 ft | 464 kts | 314° |
| 2026-05-08 02:23 | -18.66484 | 97.33844 | 34022 ft | 464 kts | 314° |
| 2026-05-08 02:23 | -18.61565 | 97.29441 | 34005 ft | 465 kts | 314° |
| 2026-05-08 02:24 | -18.56616 | 97.25015 | 34010 ft | 465 kts | 314° |
| 2026-05-08 02:24 | -18.51708 | 97.20629 | 34017 ft | 466 kts | 314° |
| 2026-05-08 02:25 | -18.46740 | 97.16193 | 34017 ft | 467 kts | 314° |
| 2026-05-08 02:25 | -18.41781 | 97.11770 | 34013 ft | 467 kts | 314° |
| 2026-05-08 02:26 | -18.36819 | 97.07346 | 34015 ft | 468 kts | 314° |
| 2026-05-08 02:26 | -18.31842 | 97.02913 | 34015 ft | 468 kts | 314° |
| 2026-05-08 02:27 | -18.27110 | 96.98701 | 33999 ft | 467 kts | 315° |
| 2026-05-08 02:27 | -18.22164 | 96.94303 | 34009 ft | 467 kts | 315° |
| 2026-05-08 02:28 | -18.17210 | 96.89900 | 34011 ft | 467 kts | 315° |
| 2026-05-08 02:28 | -18.12241 | 96.85487 | 34011 ft | 467 kts | 315° |
| 2026-05-08 02:29 | -18.07304 | 96.81106 | 34009 ft | 467 kts | 315° |
| 2026-05-08 02:29 | -18.02335 | 96.76700 | 34009 ft | 466 kts | 315° |
| 2026-05-08 02:30 | -17.97423 | 96.72349 | 34008 ft | 466 kts | 315° |
| 2026-05-08 02:30 | -17.92453 | 96.67948 | 34025 ft | 466 kts | 315° |
| 2026-05-08 02:31 | -17.87487 | 96.63554 | 34004 ft | 467 kts | 315° |
| 2026-05-08 02:31 | -17.82534 | 96.59176 | 34002 ft | 467 kts | 315° |
| 2026-05-08 02:32 | -17.77573 | 96.54794 | 34005 ft | 467 kts | 315° |
| 2026-05-08 02:32 | -17.73430 | 96.51137 | 34002 ft | 467 kts | 315° |
| 2026-05-08 02:33 | -17.67647 | 96.46036 | 34005 ft | 467 kts | 315° |
| 2026-05-08 02:33 | -17.63511 | 96.42390 | 33982 ft | 467 kts | 315° |
| 2026-05-08 02:34 | -17.58519 | 96.37993 | 34009 ft | 467 kts | 315° |
| 2026-05-08 02:34 | -17.53556 | 96.33625 | 34007 ft | 467 kts | 315° |
| 2026-05-08 02:35 | -17.48567 | 96.29237 | 34001 ft | 467 kts | 315° |
| 2026-05-08 02:35 | -17.43598 | 96.24870 | 33984 ft | 468 kts | 315° |
| 2026-05-08 02:36 | -17.38632 | 96.20509 | 33985 ft | 468 kts | 315° |
| 2026-05-08 02:36 | -17.33627 | 96.16117 | 34002 ft | 468 kts | 315° |
| 2026-05-08 02:37 | -17.28627 | 96.11732 | 33991 ft | 468 kts | 316° |
| 2026-05-08 02:37 | -17.23625 | 96.07349 | 33992 ft | 469 kts | 316° |
| 2026-05-08 02:38 | -17.18640 | 96.02984 | 33993 ft | 470 kts | 316° |
| 2026-05-08 02:38 | -17.13849 | 95.98792 | 33993 ft | 470 kts | 316° |
| 2026-05-08 02:39 | -17.08839 | 95.94411 | 33989 ft | 470 kts | 316° |
| 2026-05-08 02:39 | -17.03809 | 95.90017 | 33990 ft | 471 kts | 316° |
| 2026-05-08 02:40 | -16.98842 | 95.85680 | 33990 ft | 470 kts | 316° |
| 2026-05-08 02:40 | -16.93822 | 95.81300 | 33976 ft | 471 kts | 317° |
| 2026-05-08 02:41 | -16.88785 | 95.76908 | 33984 ft | 472 kts | 317° |
| 2026-05-08 02:41 | -16.83729 | 95.72503 | 33988 ft | 473 kts | 317° |
| 2026-05-08 02:42 | -16.78686 | 95.68113 | 33984 ft | 474 kts | 317° |
| 2026-05-08 02:42 | -16.73608 | 95.63695 | 33984 ft | 475 kts | 317° |
| 2026-05-08 02:43 | -16.68556 | 95.59303 | 33978 ft | 475 kts | 317° |
| 2026-05-08 02:43 | -16.63465 | 95.54880 | 33980 ft | 474 kts | 317° |
| 2026-05-08 02:44 | -16.58425 | 95.50505 | 33973 ft | 473 kts | 317° |
| 2026-05-08 02:44 | -16.53359 | 95.46110 | 33977 ft | 472 kts | 317° |
| 2026-05-08 02:45 | -16.48332 | 95.41753 | 33976 ft | 472 kts | 317° |
| 2026-05-08 02:45 | -16.43279 | 95.37375 | 33978 ft | 471 kts | 317° |
| 2026-05-08 02:46 | -16.38225 | 95.33000 | 33976 ft | 471 kts | 317° |
| 2026-05-08 02:46 | -16.33177 | 95.28633 | 33976 ft | 471 kts | 317° |
| 2026-05-08 02:47 | -16.28145 | 95.24282 | 33964 ft | 472 kts | 317° |
| 2026-05-08 02:47 | -16.23091 | 95.19916 | 33975 ft | 471 kts | 317° |
| 2026-05-08 02:48 | -16.18053 | 95.15566 | 33978 ft | 471 kts | 317° |
| 2026-05-08 02:48 | -16.12997 | 95.11204 | 33975 ft | 471 kts | 317° |
| 2026-05-08 02:49 | -16.07978 | 95.06876 | 33972 ft | 471 kts | 317° |
| 2026-05-08 02:49 | -16.02917 | 95.02514 | 33972 ft | 471 kts | 317° |
| 2026-05-08 02:50 | -15.98134 | 94.98396 | 33970 ft | 471 kts | 317° |
| 2026-05-08 02:50 | -15.93114 | 94.94070 | 33960 ft | 471 kts | 318° |
| 2026-05-08 02:51 | -15.88070 | 94.89725 | 33973 ft | 471 kts | 318° |
| 2026-05-08 02:51 | -15.83044 | 94.85397 | 33969 ft | 472 kts | 318° |
| 2026-05-08 02:52 | -15.77991 | 94.81048 | 33974 ft | 472 kts | 318° |
| 2026-05-08 02:52 | -15.72911 | 94.76680 | 33965 ft | 473 kts | 318° |
| 2026-05-08 02:53 | -15.67837 | 94.72320 | 33967 ft | 473 kts | 318° |
| 2026-05-08 02:53 | -15.62789 | 94.67984 | 33969 ft | 473 kts | 318° |
| 2026-05-08 02:54 | -15.57704 | 94.63620 | 33952 ft | 473 kts | 318° |
| 2026-05-08 02:54 | -15.52658 | 94.59293 | 33968 ft | 473 kts | 318° |
| 2026-05-08 02:55 | -15.45035 | 94.52760 | 33965 ft | 474 kts | 318° |
| 2026-05-08 02:56 | -15.39928 | 94.48387 | 33968 ft | 475 kts | 318° |
| 2026-05-08 02:56 | -15.34859 | 94.44050 | 33968 ft | 475 kts | 318° |
| 2026-05-08 02:57 | -15.29757 | 94.39687 | 33963 ft | 475 kts | 318° |
| 2026-05-08 02:57 | -15.24672 | 94.35342 | 33965 ft | 475 kts | 318° |
| 2026-05-08 02:58 | -15.19551 | 94.30968 | 33963 ft | 476 kts | 318° |
| 2026-05-08 02:58 | -15.14436 | 94.26603 | 33963 ft | 476 kts | 318° |
| 2026-05-08 02:59 | -15.09338 | 94.22255 | 33961 ft | 477 kts | 318° |
| 2026-05-08 02:59 | -15.04240 | 94.17910 | 33961 ft | 477 kts | 318° |
| 2026-05-08 03:00 | -14.99136 | 94.13562 | 33962 ft | 477 kts | 318° |
| 2026-05-08 03:00 | -14.94017 | 94.09205 | 33966 ft | 478 kts | 318° |
| 2026-05-08 03:01 | -14.88866 | 94.04823 | 33959 ft | 478 kts | 319° |
| 2026-05-08 03:01 | -14.83751 | 94.00474 | 33956 ft | 477 kts | 319° |
| 2026-05-08 03:02 | -14.78848 | 93.96309 | 33959 ft | 477 kts | 319° |
| 2026-05-08 03:02 | -14.73747 | 93.91977 | 33958 ft | 477 kts | 319° |
| 2026-05-08 03:03 | -14.68611 | 93.87618 | 33959 ft | 477 kts | 319° |
| 2026-05-08 03:03 | -14.63492 | 93.83278 | 33958 ft | 477 kts | 319° |
| 2026-05-08 03:04 | -14.58355 | 93.78924 | 33950 ft | 477 kts | 319° |
| 2026-05-08 03:04 | -14.53228 | 93.74581 | 33955 ft | 478 kts | 319° |
| 2026-05-08 03:05 | -14.48093 | 93.70234 | 33957 ft | 478 kts | 319° |
| 2026-05-08 03:05 | -14.42913 | 93.65853 | 33957 ft | 479 kts | 319° |
| 2026-05-08 03:06 | -14.37797 | 93.61527 | 33953 ft | 479 kts | 319° |
| 2026-05-08 03:06 | -14.32626 | 93.57158 | 33951 ft | 479 kts | 319° |
| 2026-05-08 03:07 | -14.27458 | 93.52795 | 33950 ft | 479 kts | 319° |
| 2026-05-08 03:07 | -14.22315 | 93.48455 | 33954 ft | 479 kts | 319° |
| 2026-05-08 03:08 | -14.17177 | 93.44121 | 33945 ft | 479 kts | 319° |
| 2026-05-08 03:08 | -14.12007 | 93.39763 | 33952 ft | 479 kts | 319° |
| 2026-05-08 03:09 | -14.06831 | 93.35404 | 33951 ft | 480 kts | 319° |
| 2026-05-08 03:09 | -14.01678 | 93.31066 | 33948 ft | 480 kts | 319° |
| 2026-05-08 03:10 | -13.96526 | 93.26731 | 33948 ft | 480 kts | 319° |
| 2026-05-08 03:10 | -13.91372 | 93.22398 | 33949 ft | 480 kts | 319° |
| 2026-05-08 03:11 | -13.86206 | 93.18057 | 33944 ft | 481 kts | 319° |
| 2026-05-08 03:11 | -13.81009 | 93.13692 | 33941 ft | 481 kts | 319° |
| 2026-05-08 03:12 | -13.75829 | 93.09345 | 33947 ft | 481 kts | 319° |
| 2026-05-08 03:12 | -13.70638 | 93.04990 | 33944 ft | 481 kts | 319° |
| 2026-05-08 03:13 | -13.65469 | 93.00656 | 33946 ft | 481 kts | 320° |
| 2026-05-08 03:13 | -13.60533 | 92.96521 | 33945 ft | 481 kts | 320° |
| 2026-05-08 03:14 | -13.55326 | 92.92161 | 33946 ft | 481 kts | 319° |
| 2026-05-08 03:14 | -13.50147 | 92.87826 | 33944 ft | 481 kts | 319° |
| 2026-05-08 03:15 | -13.44939 | 92.83470 | 33941 ft | 481 kts | 320° |
| 2026-05-08 03:15 | -13.39748 | 92.79131 | 33945 ft | 482 kts | 320° |
| 2026-05-08 03:16 | -13.34563 | 92.74799 | 33947 ft | 482 kts | 320° |
| 2026-05-08 03:16 | -13.29366 | 92.70460 | 33946 ft | 482 kts | 320° |
| 2026-05-08 03:17 | -13.24164 | 92.66119 | 33953 ft | 482 kts | 320° |
| 2026-05-08 03:17 | -13.18938 | 92.61761 | 33942 ft | 482 kts | 320° |
| 2026-05-08 03:18 | -13.13736 | 92.57424 | 33938 ft | 481 kts | 320° |
| 2026-05-08 03:18 | -13.08545 | 92.53100 | 33938 ft | 481 kts | 320° |
| 2026-05-08 03:19 | -13.03336 | 92.48763 | 33939 ft | 480 kts | 320° |
| 2026-05-08 03:19 | -12.98186 | 92.44477 | 33941 ft | 480 kts | 320° |
| 2026-05-08 03:20 | -12.93007 | 92.40170 | 33939 ft | 481 kts | 320° |
| 2026-05-08 03:20 | -12.88672 | 92.36566 | 33938 ft | 481 kts | 320° |
| 2026-05-08 03:21 | -12.83471 | 92.32245 | 33936 ft | 481 kts | 320° |
| 2026-05-08 03:21 | -12.78261 | 92.27918 | 33945 ft | 481 kts | 320° |
| 2026-05-08 03:22 | -12.73078 | 92.23617 | 33935 ft | 481 kts | 320° |
| 2026-05-08 03:22 | -12.67887 | 92.19311 | 33939 ft | 480 kts | 320° |
| 2026-05-08 03:23 | -12.62670 | 92.14986 | 33937 ft | 480 kts | 320° |
| 2026-05-08 03:23 | -12.57502 | 92.10704 | 33934 ft | 480 kts | 320° |
| 2026-05-08 03:24 | -12.52335 | 92.06425 | 33935 ft | 480 kts | 320° |
| 2026-05-08 03:24 | -12.47125 | 92.02113 | 33932 ft | 480 kts | 320° |
| 2026-05-08 03:25 | -12.42168 | 91.98012 | 33932 ft | 480 kts | 320° |
| 2026-05-08 03:25 | -12.36962 | 91.93707 | 33925 ft | 481 kts | 320° |
| 2026-05-08 03:26 | -12.31778 | 91.89423 | 33935 ft | 481 kts | 320° |
| 2026-05-08 03:26 | -12.26552 | 91.85106 | 33931 ft | 482 kts | 320° |
| 2026-05-08 03:27 | -12.21338 | 91.80802 | 33928 ft | 482 kts | 320° |
| 2026-05-08 03:27 | -12.16144 | 91.76517 | 33926 ft | 481 kts | 320° |
| 2026-05-08 03:28 | -12.10912 | 91.72202 | 33926 ft | 481 kts | 320° |
| 2026-05-08 03:28 | -12.05719 | 91.67921 | 33926 ft | 481 kts | 320° |
| 2026-05-08 03:29 | -12.00505 | 91.63626 | 33918 ft | 481 kts | 320° |
| 2026-05-08 03:29 | -11.95336 | 91.59370 | 33929 ft | 482 kts | 320° |
| 2026-05-08 03:30 | -11.87473 | 91.52899 | 33922 ft | 483 kts | 320° |
| 2026-05-08 03:31 | -11.77038 | 91.44320 | 33920 ft | 483 kts | 320° |
| 2026-05-08 03:32 | -11.69192 | 91.37875 | 33923 ft | 482 kts | 320° |
| 2026-05-08 03:32 | -11.63962 | 91.33582 | 33912 ft | 483 kts | 320° |
| 2026-05-08 03:33 | -11.58714 | 91.29275 | 33922 ft | 483 kts | 320° |
| 2026-05-08 03:33 | -11.53484 | 91.24987 | 33916 ft | 484 kts | 320° |
| 2026-05-08 03:34 | -11.48231 | 91.20681 | 33927 ft | 485 kts | 320° |
| 2026-05-08 03:34 | -11.42967 | 91.16368 | 33912 ft | 485 kts | 320° |
| 2026-05-08 03:35 | -11.37718 | 91.12069 | 33917 ft | 484 kts | 320° |
| 2026-05-08 03:35 | -11.32499 | 91.07797 | 33915 ft | 482 kts | 320° |
| 2026-05-08 03:36 | -11.27262 | 91.03513 | 33907 ft | 482 kts | 320° |
| 2026-05-08 03:36 | -11.22274 | 90.99434 | 33919 ft | 482 kts | 320° |
| 2026-05-08 03:37 | -11.17057 | 90.95170 | 33912 ft | 483 kts | 320° |
| 2026-05-08 03:37 | -11.11787 | 90.90865 | 33916 ft | 484 kts | 320° |
| 2026-05-08 03:38 | -11.06558 | 90.86595 | 33912 ft | 484 kts | 320° |
| 2026-05-08 03:38 | -11.01273 | 90.82282 | 33915 ft | 484 kts | 320° |
| 2026-05-08 03:39 | -10.96061 | 90.78030 | 33913 ft | 484 kts | 320° |
| 2026-05-08 03:39 | -10.90794 | 90.73735 | 33914 ft | 483 kts | 321° |
| 2026-05-08 03:40 | -10.85557 | 90.69467 | 33913 ft | 482 kts | 320° |
| 2026-05-08 03:40 | -10.80329 | 90.65207 | 33905 ft | 481 kts | 321° |
| 2026-05-08 03:41 | -10.75117 | 90.60964 | 33909 ft | 481 kts | 320° |
| 2026-05-08 03:41 | -10.69878 | 90.56700 | 33906 ft | 481 kts | 320° |
| 2026-05-08 03:42 | -10.64664 | 90.52458 | 33910 ft | 482 kts | 321° |
| 2026-05-08 03:42 | -10.59410 | 90.48185 | 33910 ft | 482 kts | 321° |
| 2026-05-08 03:43 | -10.54169 | 90.43925 | 33897 ft | 483 kts | 321° |
| 2026-05-08 03:43 | -10.48929 | 90.39667 | 33910 ft | 484 kts | 320° |
| 2026-05-08 03:44 | -10.43662 | 90.35390 | 33905 ft | 484 kts | 321° |
| 2026-05-08 03:44 | -10.38406 | 90.31124 | 33908 ft | 484 kts | 320° |
| 2026-05-08 03:45 | -10.33143 | 90.26854 | 33899 ft | 483 kts | 320° |
| 2026-05-08 03:45 | -10.27900 | 90.22602 | 33903 ft | 483 kts | 320° |
| 2026-05-08 03:46 | -10.22674 | 90.18365 | 33904 ft | 483 kts | 320° |
| 2026-05-08 03:46 | -10.17400 | 90.14090 | 33897 ft | 484 kts | 321° |
| 2026-05-08 03:47 | -10.12140 | 90.09830 | 33900 ft | 485 kts | 320° |
| 2026-05-08 03:47 | -10.06863 | 90.05556 | 33901 ft | 486 kts | 321° |
| 2026-05-08 03:48 | -10.01554 | 90.01260 | 33904 ft | 487 kts | 321° |
| 2026-05-08 03:48 | -9.96805 | 89.96889 | 33905 ft | 485 kts | 314° |
| 2026-05-08 03:49 | -9.92071 | 89.92056 | 33894 ft | 486 kts | 314° |
| 2026-05-08 03:49 | -9.87287 | 89.87164 | 33901 ft | 486 kts | 314° |
| 2026-05-08 03:50 | -9.82527 | 89.82330 | 33894 ft | 486 kts | 314° |
| 2026-05-08 03:50 | -9.77717 | 89.77468 | 33897 ft | 486 kts | 314° |
| 2026-05-08 03:51 | -9.72949 | 89.72655 | 33889 ft | 487 kts | 314° |
| 2026-05-08 03:51 | -9.68141 | 89.67801 | 33894 ft | 486 kts | 314° |
| 2026-05-08 03:52 | -9.63342 | 89.62958 | 33885 ft | 486 kts | 315° |
| 2026-05-08 03:52 | -9.58577 | 89.58151 | 33884 ft | 487 kts | 314° |
| 2026-05-08 03:53 | -9.53775 | 89.53308 | 33892 ft | 487 kts | 314° |
| 2026-05-08 03:53 | -9.48958 | 89.48451 | 33893 ft | 486 kts | 314° |
| 2026-05-08 03:54 | -9.44182 | 89.43641 | 33881 ft | 487 kts | 314° |
| 2026-05-08 03:54 | -9.39379 | 89.38802 | 33889 ft | 489 kts | 314° |
| 2026-05-08 03:55 | -9.34539 | 89.33930 | 33895 ft | 491 kts | 314° |
| 2026-05-08 03:55 | -9.29680 | 89.29040 | 33888 ft | 491 kts | 314° |
| 2026-05-08 03:56 | -9.24834 | 89.24165 | 33879 ft | 492 kts | 314° |
| 2026-05-08 03:56 | -9.20009 | 89.19315 | 33880 ft | 490 kts | 314° |
| 2026-05-08 03:57 | -9.15154 | 89.14435 | 33876 ft | 488 kts | 314° |
| 2026-05-08 03:57 | -9.10376 | 89.09632 | 33877 ft | 487 kts | 314° |
| 2026-05-08 03:58 | -9.05565 | 89.04801 | 33884 ft | 486 kts | 314° |
| 2026-05-08 03:58 | -9.00781 | 88.99999 | 33879 ft | 485 kts | 314° |
| 2026-05-08 03:59 | -8.96239 | 88.95441 | 33878 ft | 484 kts | 314° |
| 2026-05-08 03:59 | -8.91432 | 88.90619 | 33873 ft | 485 kts | 314° |
| 2026-05-08 04:00 | -8.86666 | 88.85839 | 33872 ft | 486 kts | 314° |
| 2026-05-08 04:00 | -8.81863 | 88.81025 | 33875 ft | 486 kts | 314° |
| 2026-05-08 04:01 | -8.77047 | 88.76200 | 33878 ft | 487 kts | 314° |
| 2026-05-08 04:01 | -8.72223 | 88.71369 | 33882 ft | 488 kts | 314° |
| 2026-05-08 04:02 | -8.67421 | 88.66561 | 33878 ft | 487 kts | 314° |
| 2026-05-08 04:02 | -8.62587 | 88.61723 | 33876 ft | 487 kts | 314° |
| 2026-05-08 04:03 | -8.57798 | 88.56932 | 33876 ft | 487 kts | 314° |
| 2026-05-08 04:03 | -8.50563 | 88.49697 | 33878 ft | 486 kts | 314° |
| 2026-05-08 04:04 | -8.45741 | 88.44878 | 33869 ft | 487 kts | 314° |
| 2026-05-08 04:04 | -8.40944 | 88.40085 | 33867 ft | 489 kts | 315° |
| 2026-05-08 04:05 | -8.36086 | 88.35234 | 33873 ft | 489 kts | 314° |
| 2026-05-08 04:05 | -8.31280 | 88.30435 | 33869 ft | 489 kts | 315° |
| 2026-05-08 04:06 | -8.26421 | 88.25586 | 33868 ft | 489 kts | 315° |
| 2026-05-08 04:06 | -8.21597 | 88.20773 | 33873 ft | 489 kts | 315° |
| 2026-05-08 04:07 | -8.16758 | 88.15948 | 33872 ft | 489 kts | 315° |
| 2026-05-08 04:07 | -8.11935 | 88.11140 | 33866 ft | 488 kts | 315° |
| 2026-05-08 04:08 | -8.07095 | 88.06316 | 33874 ft | 488 kts | 315° |
| 2026-05-08 04:08 | -8.03070 | 88.02306 | 33874 ft | 486 kts | 315° |
| 2026-05-08 04:09 | -7.98530 | 87.97784 | 33876 ft | 484 kts | 315° |
| 2026-05-08 04:09 | -7.93723 | 87.92998 | 33874 ft | 483 kts | 316° |
| 2026-05-08 04:10 | -7.88934 | 87.88233 | 33871 ft | 484 kts | 316° |
| 2026-05-08 04:10 | -7.84136 | 87.83459 | 33873 ft | 486 kts | 316° |
| 2026-05-08 04:11 | -7.79344 | 87.78693 | 33873 ft | 486 kts | 315° |
| 2026-05-08 04:11 | -7.74517 | 87.73894 | 33869 ft | 487 kts | 316° |
| 2026-05-08 04:12 | -7.69683 | 87.69089 | 33874 ft | 487 kts | 316° |
| 2026-05-08 04:12 | -7.64847 | 87.64284 | 33875 ft | 486 kts | 316° |
| 2026-05-08 04:13 | -7.60040 | 87.59510 | 33868 ft | 486 kts | 316° |
| 2026-05-08 04:13 | -7.55219 | 87.54723 | 33863 ft | 487 kts | 316° |
| 2026-05-08 04:14 | -7.50404 | 87.49944 | 33877 ft | 489 kts | 316° |
| 2026-05-08 04:14 | -7.45536 | 87.45114 | 33877 ft | 491 kts | 316° |
| 2026-05-08 04:15 | -7.40659 | 87.40277 | 33875 ft | 492 kts | 316° |
| 2026-05-08 04:15 | -7.35785 | 87.35443 | 33874 ft | 492 kts | 316° |
| 2026-05-08 04:16 | -7.30926 | 87.30627 | 33878 ft | 492 kts | 316° |
| 2026-05-08 04:16 | -7.26038 | 87.25782 | 33875 ft | 490 kts | 316° |
| 2026-05-08 04:17 | -7.21202 | 87.20991 | 33868 ft | 488 kts | 316° |
| 2026-05-08 04:17 | -7.16362 | 87.16198 | 33872 ft | 487 kts | 316° |
| 2026-05-08 04:18 | -7.11556 | 87.11440 | 33873 ft | 486 kts | 316° |
| 2026-05-08 04:18 | -7.06723 | 87.06655 | 33871 ft | 487 kts | 316° |
| 2026-05-08 04:19 | -7.01904 | 87.01886 | 33875 ft | 487 kts | 316° |
| 2026-05-08 04:19 | -6.97312 | 86.97325 | 33877 ft | 488 kts | 316° |
| 2026-05-08 04:20 | -6.92488 | 86.92474 | 33875 ft | 488 kts | 316° |
| 2026-05-08 04:20 | -6.87709 | 86.87657 | 33870 ft | 488 kts | 316° |
| 2026-05-08 04:21 | -6.82895 | 86.82814 | 33873 ft | 488 kts | 316° |
| 2026-05-08 04:21 | -6.78105 | 86.78001 | 33876 ft | 488 kts | 316° |
| 2026-05-08 04:22 | -6.73295 | 86.73171 | 33877 ft | 488 kts | 316° |
| 2026-05-08 04:22 | -6.68482 | 86.68339 | 33877 ft | 488 kts | 316° |
| 2026-05-08 04:23 | -6.63700 | 86.63540 | 33877 ft | 488 kts | 316° |
| 2026-05-08 04:23 | -6.58865 | 86.58688 | 33878 ft | 489 kts | 316° |
| 2026-05-08 04:24 | -6.54069 | 86.53877 | 33880 ft | 488 kts | 316° |
| 2026-05-08 04:24 | -6.49252 | 86.49048 | 33876 ft | 488 kts | 316° |
| 2026-05-08 04:25 | -6.44461 | 86.44244 | 33867 ft | 488 kts | 316° |
| 2026-05-08 04:25 | -6.39624 | 86.39396 | 33880 ft | 489 kts | 316° |
| 2026-05-08 04:26 | -6.34809 | 86.34572 | 33882 ft | 490 kts | 316° |
| 2026-05-08 04:26 | -6.29968 | 86.29723 | 33879 ft | 491 kts | 316° |
| 2026-05-08 04:27 | -6.25140 | 86.24888 | 33880 ft | 492 kts | 316° |
| 2026-05-08 04:27 | -6.20282 | 86.20025 | 33881 ft | 492 kts | 316° |
| 2026-05-08 04:28 | -6.15432 | 86.15170 | 33882 ft | 492 kts | 316° |
| 2026-05-08 04:28 | -6.10597 | 86.10333 | 33877 ft | 491 kts | 316° |
| 2026-05-08 04:29 | -6.05779 | 86.05513 | 33872 ft | 492 kts | 316° |
| 2026-05-08 04:29 | -6.00917 | 86.00651 | 33883 ft | 492 kts | 316° |
| 2026-05-08 04:30 | -5.96278 | 85.96013 | 33883 ft | 494 kts | 316° |
| 2026-05-08 04:30 | -5.91417 | 85.91155 | 33881 ft | 495 kts | 316° |
| 2026-05-08 04:31 | -5.86518 | 85.86260 | 33882 ft | 495 kts | 316° |
| 2026-05-08 04:31 | -5.81671 | 85.81417 | 33879 ft | 495 kts | 316° |
| 2026-05-08 04:32 | -5.76773 | 85.76525 | 33879 ft | 495 kts | 316° |
| 2026-05-08 04:32 | -5.71903 | 85.71663 | 33878 ft | 495 kts | 316° |
| 2026-05-08 04:33 | -5.67021 | 85.66789 | 33876 ft | 494 kts | 316° |
| 2026-05-08 04:33 | -5.62132 | 85.61910 | 33881 ft | 495 kts | 316° |
| 2026-05-08 04:34 | -5.57260 | 85.57049 | 33882 ft | 495 kts | 316° |
| 2026-05-08 04:34 | -5.52365 | 85.52166 | 33883 ft | 496 kts | 316° |
| 2026-05-08 04:35 | -5.47460 | 85.47275 | 33884 ft | 496 kts | 316° |
| 2026-05-08 04:35 | -5.42566 | 85.42396 | 33883 ft | 496 kts | 316° |
| 2026-05-08 04:36 | -5.37705 | 85.37550 | 33882 ft | 494 kts | 316° |
| 2026-05-08 04:36 | -5.32825 | 85.32687 | 33872 ft | 491 kts | 316° |
| 2026-05-08 04:37 | -5.27984 | 85.27864 | 33874 ft | 490 kts | 316° |
| 2026-05-08 04:37 | -5.23152 | 85.23051 | 33880 ft | 491 kts | 316° |
| 2026-05-08 04:38 | -5.18288 | 85.18208 | 33882 ft | 492 kts | 316° |
| 2026-05-08 04:38 | -5.13421 | 85.13362 | 33882 ft | 494 kts | 316° |
| 2026-05-08 04:39 | -5.08558 | 85.08520 | 33878 ft | 495 kts | 316° |
| 2026-05-08 04:39 | -5.03679 | 85.03663 | 33877 ft | 495 kts | 316° |
| 2026-05-08 04:40 | -4.99042 | 84.99048 | 33878 ft | 492 kts | 316° |
| 2026-05-08 04:40 | -4.94224 | 84.94215 | 33871 ft | 490 kts | 316° |
| 2026-05-08 04:41 | -4.89400 | 84.89359 | 33873 ft | 489 kts | 316° |
| 2026-05-08 04:41 | -4.84597 | 84.84527 | 33878 ft | 489 kts | 316° |
| 2026-05-08 04:42 | -4.79816 | 84.79722 | 33879 ft | 490 kts | 316° |
| 2026-05-08 04:42 | -4.74980 | 84.74865 | 33878 ft | 491 kts | 316° |
| 2026-05-08 04:43 | -4.70133 | 84.69998 | 33880 ft | 493 kts | 316° |
| 2026-05-08 04:43 | -4.65313 | 84.65158 | 33874 ft | 493 kts | 316° |
| 2026-05-08 04:44 | -4.60459 | 84.60285 | 33874 ft | 493 kts | 316° |
| 2026-05-08 04:44 | -4.55600 | 84.55409 | 33873 ft | 492 kts | 316° |
| 2026-05-08 04:45 | -4.50789 | 84.50581 | 33875 ft | 493 kts | 316° |
| 2026-05-08 04:45 | -4.45925 | 84.45701 | 33880 ft | 494 kts | 316° |
| 2026-05-08 04:46 | -4.41086 | 84.40847 | 33877 ft | 495 kts | 316° |
| 2026-05-08 04:46 | -4.36204 | 84.35952 | 33879 ft | 495 kts | 316° |
| 2026-05-08 04:47 | -4.31343 | 84.31077 | 33877 ft | 495 kts | 316° |
| 2026-05-08 04:47 | -4.26470 | 84.26192 | 33876 ft | 495 kts | 316° |
| 2026-05-08 04:48 | -4.21610 | 84.21321 | 33873 ft | 495 kts | 316° |
| 2026-05-08 04:48 | -4.16747 | 84.16449 | 33876 ft | 495 kts | 316° |
| 2026-05-08 04:49 | -4.11870 | 84.11562 | 33872 ft | 497 kts | 316° |
| 2026-05-08 04:49 | -4.06985 | 84.06668 | 33874 ft | 498 kts | 316° |
| 2026-05-08 04:50 | -4.02079 | 84.01755 | 33875 ft | 498 kts | 316° |
| 2026-05-08 04:50 | -3.97414 | 83.97084 | 33875 ft | 499 kts | 316° |
| 2026-05-08 04:51 | -3.92501 | 83.92165 | 33875 ft | 499 kts | 316° |
| 2026-05-08 04:51 | -3.87597 | 83.87256 | 33874 ft | 499 kts | 316° |
| 2026-05-08 04:52 | -3.82682 | 83.82337 | 33868 ft | 500 kts | 316° |
| 2026-05-08 04:52 | -3.77765 | 83.77417 | 33874 ft | 500 kts | 316° |
| 2026-05-08 04:53 | -3.72824 | 83.72473 | 33871 ft | 501 kts | 316° |
| 2026-05-08 04:53 | -3.67917 | 83.67564 | 33871 ft | 501 kts | 316° |
| 2026-05-08 04:54 | -3.62977 | 83.62623 | 33871 ft | 501 kts | 316° |
| 2026-05-08 04:54 | -3.58047 | 83.57694 | 33873 ft | 501 kts | 316° |
| 2026-05-08 04:55 | -3.53927 | 83.53574 | 33870 ft | 501 kts | 316° |
| 2026-05-08 04:55 | -3.48987 | 83.48635 | 33875 ft | 501 kts | 316° |
| 2026-05-08 04:56 | -3.44059 | 83.43710 | 33870 ft | 501 kts | 316° |
| 2026-05-08 04:56 | -3.39139 | 83.38792 | 33869 ft | 502 kts | 317° |
| 2026-05-08 04:57 | -3.34186 | 83.33843 | 33874 ft | 502 kts | 316° |
| 2026-05-08 04:57 | -3.29258 | 83.28920 | 33871 ft | 502 kts | 316° |
| 2026-05-08 04:58 | -3.24306 | 83.23974 | 33873 ft | 502 kts | 316° |
| 2026-05-08 04:58 | -3.19372 | 83.19046 | 34117 ft | 502 kts | 317° |
| 2026-05-08 04:59 | -3.16903 | 83.16579 | 34423 ft | 500 kts | 317° |
| 2026-05-08 04:59 | -3.14430 | 83.14109 | 34693 ft | 499 kts | 317° |
| 2026-05-08 04:59 | -3.11980 | 83.11663 | 35017 ft | 497 kts | 316° |
| 2026-05-08 04:59 | -3.09571 | 83.09257 | 35387 ft | 494 kts | 316° |
| 2026-05-08 05:00 | -3.07125 | 83.06815 | 35662 ft | 493 kts | 316° |
| 2026-05-08 05:00 | -3.04689 | 83.04382 | 35797 ft | 494 kts | 316° |
| 2026-05-08 05:00 | -2.99975 | 82.99678 | 35870 ft | 496 kts | 316° |
| 2026-05-08 05:01 | -2.95176 | 82.94890 | 35873 ft | 496 kts | 316° |
| 2026-05-08 05:01 | -2.90272 | 82.89994 | 35869 ft | 495 kts | 316° |
| 2026-05-08 05:02 | -2.85423 | 82.85156 | 35875 ft | 495 kts | 316° |
| 2026-05-08 05:02 | -2.80535 | 82.80279 | 35874 ft | 494 kts | 315° |
| 2026-05-08 05:03 | -2.75657 | 82.75413 | 35868 ft | 494 kts | 315° |
| 2026-05-08 05:03 | -2.70813 | 82.70581 | 35874 ft | 494 kts | 315° |
| 2026-05-08 05:04 | -2.65924 | 82.65705 | 35873 ft | 495 kts | 315° |
| 2026-05-08 05:04 | -2.61064 | 82.60858 | 35876 ft | 497 kts | 315° |
| 2026-05-08 05:05 | -2.56142 | 82.55951 | 35876 ft | 498 kts | 315° |
| 2026-05-08 05:05 | -2.51260 | 82.51083 | 35870 ft | 498 kts | 315° |
| 2026-05-08 05:06 | -2.46326 | 82.46164 | 35873 ft | 498 kts | 315° |
| 2026-05-08 05:06 | -2.41415 | 82.41269 | 35867 ft | 499 kts | 315° |
| 2026-05-08 05:07 | -2.36535 | 82.36405 | 35873 ft | 498 kts | 315° |
| 2026-05-08 05:07 | -2.31618 | 82.31504 | 35876 ft | 498 kts | 315° |
| 2026-05-08 05:08 | -2.26699 | 82.26603 | 35872 ft | 497 kts | 315° |
| 2026-05-08 05:08 | -2.21823 | 82.21743 | 35876 ft | 497 kts | 315° |
| 2026-05-08 05:09 | -2.16899 | 82.16838 | 35870 ft | 498 kts | 315° |
| 2026-05-08 05:09 | -2.12016 | 82.11973 | 35876 ft | 499 kts | 315° |
| 2026-05-08 05:10 | -2.04648 | 82.04632 | 35878 ft | 498 kts | 315° |
| 2026-05-08 05:11 | -1.99875 | 81.99784 | 35866 ft | 499 kts | 311° |
| 2026-05-08 05:11 | -1.95722 | 81.94458 | 35875 ft | 498 kts | 307° |
| 2026-05-08 05:12 | -1.91611 | 81.88879 | 35864 ft | 498 kts | 306° |
| 2026-05-08 05:12 | -1.87504 | 81.83331 | 35868 ft | 498 kts | 307° |
| 2026-05-08 05:13 | -1.83373 | 81.77799 | 35864 ft | 500 kts | 307° |
| 2026-05-08 05:13 | -1.79185 | 81.72208 | 35874 ft | 503 kts | 307° |
| 2026-05-08 05:14 | -1.74974 | 81.66590 | 35872 ft | 505 kts | 307° |
| 2026-05-08 05:14 | -1.70757 | 81.60964 | 35874 ft | 505 kts | 307° |
| 2026-05-08 05:15 | -1.66563 | 81.55365 | 35870 ft | 504 kts | 307° |
| 2026-05-08 05:15 | -1.62361 | 81.49758 | 35861 ft | 502 kts | 307° |
| 2026-05-08 05:16 | -1.58195 | 81.44197 | 35874 ft | 500 kts | 307° |
| 2026-05-08 05:16 | -1.54031 | 81.38641 | 35865 ft | 498 kts | 307° |
| 2026-05-08 05:17 | -1.49893 | 81.33120 | 35869 ft | 496 kts | 307° |
| 2026-05-08 05:17 | -1.45746 | 81.27586 | 35873 ft | 498 kts | 308° |
| 2026-05-08 05:18 | -1.41572 | 81.22018 | 35872 ft | 501 kts | 308° |
| 2026-05-08 05:18 | -1.37413 | 81.16469 | 35881 ft | 503 kts | 307° |
| 2026-05-08 05:19 | -1.33200 | 81.10850 | 35873 ft | 504 kts | 307° |
| 2026-05-08 05:19 | -1.29013 | 81.05266 | 35865 ft | 504 kts | 308° |
| 2026-05-08 05:20 | -1.24891 | 80.99767 | 35867 ft | 503 kts | 307° |
| 2026-05-08 05:20 | -1.20797 | 80.94306 | 35865 ft | 502 kts | 307° |
| 2026-05-08 05:21 | -1.16619 | 80.88734 | 35868 ft | 501 kts | 307° |
| 2026-05-08 05:21 | -1.12444 | 80.83166 | 35863 ft | 500 kts | 308° |
| 2026-05-08 05:22 | -1.08287 | 80.77623 | 35868 ft | 501 kts | 308° |
| 2026-05-08 05:22 | -1.04095 | 80.72034 | 35872 ft | 502 kts | 308° |
| 2026-05-08 05:23 | -0.99927 | 80.66477 | 35871 ft | 503 kts | 308° |
| 2026-05-08 05:23 | -0.95723 | 80.60871 | 35869 ft | 504 kts | 308° |
| 2026-05-08 05:24 | -0.91490 | 80.55227 | 35874 ft | 505 kts | 308° |
| 2026-05-08 05:24 | -0.87294 | 80.49633 | 35875 ft | 505 kts | 308° |
| 2026-05-08 05:25 | -0.83070 | 80.44003 | 35869 ft | 505 kts | 308° |
| 2026-05-08 05:25 | -0.78869 | 80.38403 | 35872 ft | 505 kts | 308° |
| 2026-05-08 05:26 | -0.74651 | 80.32779 | 35872 ft | 505 kts | 308° |
| 2026-05-08 05:26 | -0.70461 | 80.27195 | 35870 ft | 505 kts | 308° |
| 2026-05-08 05:27 | -0.66238 | 80.21565 | 35871 ft | 506 kts | 308° |
| 2026-05-08 05:27 | -0.62004 | 80.15922 | 35869 ft | 506 kts | 308° |
| 2026-05-08 05:28 | -0.57788 | 80.10302 | 35871 ft | 506 kts | 308° |
| 2026-05-08 05:28 | -0.53578 | 80.04692 | 35869 ft | 507 kts | 308° |
| 2026-05-08 05:29 | -0.49552 | 79.99326 | 35868 ft | 507 kts | 308° |
| 2026-05-08 05:29 | -0.45319 | 79.93685 | 35869 ft | 507 kts | 308° |
| 2026-05-08 05:30 | -0.41080 | 79.88034 | 35867 ft | 506 kts | 308° |
| 2026-05-08 05:30 | -0.36871 | 79.82426 | 35869 ft | 506 kts | 308° |
| 2026-05-08 05:31 | -0.32635 | 79.76781 | 35872 ft | 506 kts | 308° |
| 2026-05-08 05:31 | -0.28428 | 79.71174 | 35863 ft | 506 kts | 308° |
| 2026-05-08 05:32 | -0.24211 | 79.65554 | 35865 ft | 505 kts | 308° |
| 2026-05-08 05:32 | -0.20011 | 79.59958 | 35867 ft | 504 kts | 308° |
| 2026-05-08 05:33 | -0.15816 | 79.54367 | 35865 ft | 504 kts | 308° |
| 2026-05-08 05:33 | -0.11599 | 79.48747 | 35867 ft | 504 kts | 308° |
| 2026-05-08 05:34 | -0.07385 | 79.43133 | 35864 ft | 504 kts | 308° |
| 2026-05-08 05:34 | -0.03194 | 79.37547 | 35869 ft | 504 kts | 308° |
| 2026-05-08 05:35 | 0.00985 | 79.31979 | 35871 ft | 504 kts | 308° |
| 2026-05-08 05:35 | 0.05217 | 79.26339 | 35870 ft | 504 kts | 308° |
| 2026-05-08 05:36 | 0.09416 | 79.20743 | 35872 ft | 505 kts | 308° |
| 2026-05-08 05:36 | 0.13641 | 79.15114 | 35870 ft | 506 kts | 308° |
| 2026-05-08 05:37 | 0.17853 | 79.09501 | 35869 ft | 507 kts | 308° |
| 2026-05-08 05:37 | 0.22084 | 79.03863 | 35874 ft | 507 kts | 308° |
| 2026-05-08 05:38 | 0.26098 | 78.98513 | 35851 ft | 507 kts | 308° |
| 2026-05-08 05:38 | 0.30335 | 78.92867 | 35871 ft | 506 kts | 308° |
| 2026-05-08 05:39 | 0.34557 | 78.87240 | 35872 ft | 506 kts | 308° |
| 2026-05-08 05:39 | 0.38769 | 78.81627 | 35854 ft | 506 kts | 308° |
| 2026-05-08 05:40 | 0.42992 | 78.75999 | 35871 ft | 505 kts | 308° |
| 2026-05-08 05:40 | 0.47210 | 78.70377 | 35868 ft | 505 kts | 308° |
| 2026-05-08 05:41 | 0.51412 | 78.64777 | 35874 ft | 505 kts | 308° |
| 2026-05-08 05:41 | 0.54923 | 78.60098 | 35859 ft | 504 kts | 308° |
| 2026-05-08 05:42 | 0.59133 | 78.54487 | 35858 ft | 504 kts | 308° |
| 2026-05-08 05:42 | 0.63340 | 78.48879 | 35858 ft | 504 kts | 308° |
| 2026-05-08 05:43 | 0.67529 | 78.43295 | 35861 ft | 503 kts | 308° |
| 2026-05-08 05:43 | 0.71739 | 78.37683 | 35873 ft | 503 kts | 308° |
| 2026-05-08 05:44 | 0.75935 | 78.32090 | 35843 ft | 504 kts | 308° |
| 2026-05-08 05:44 | 0.80140 | 78.26485 | 35870 ft | 506 kts | 308° |
| 2026-05-08 05:45 | 0.84366 | 78.20850 | 35873 ft | 508 kts | 308° |
| 2026-05-08 05:45 | 0.88605 | 78.15199 | 35871 ft | 510 kts | 308° |
| 2026-05-08 05:46 | 0.92879 | 78.09498 | 35868 ft | 511 kts | 308° |
| 2026-05-08 05:46 | 0.97133 | 78.03825 | 35864 ft | 511 kts | 308° |
| 2026-05-08 05:47 | 1.01283 | 77.98520 | 35849 ft | 509 kts | 314° |
| 2026-05-08 05:47 | 1.06068 | 77.93359 | 35870 ft | 508 kts | 315° |
| 2026-05-08 05:48 | 1.10920 | 77.88229 | 35872 ft | 507 kts | 315° |
| 2026-05-08 05:48 | 1.15733 | 77.83105 | 35865 ft | 506 kts | 315° |
| 2026-05-08 05:49 | 1.20546 | 77.77942 | 35867 ft | 506 kts | 315° |
| 2026-05-08 05:49 | 1.25314 | 77.72814 | 35865 ft | 505 kts | 315° |
| 2026-05-08 05:50 | 1.30099 | 77.67669 | 35866 ft | 505 kts | 315° |
| 2026-05-08 05:50 | 1.34894 | 77.62514 | 35866 ft | 505 kts | 315° |
| 2026-05-08 05:51 | 1.39671 | 77.57381 | 35870 ft | 506 kts | 315° |
| 2026-05-08 05:51 | 1.44472 | 77.52220 | 35868 ft | 506 kts | 315° |
| 2026-05-08 05:52 | 1.49269 | 77.47064 | 35865 ft | 506 kts | 315° |
| 2026-05-08 05:52 | 1.54038 | 77.41938 | 35867 ft | 506 kts | 315° |
| 2026-05-08 05:53 | 1.58819 | 77.36798 | 35865 ft | 505 kts | 315° |
| 2026-05-08 05:53 | 1.63620 | 77.31636 | 35866 ft | 505 kts | 315° |
| 2026-05-08 05:54 | 1.68389 | 77.26509 | 35865 ft | 505 kts | 315° |
| 2026-05-08 05:54 | 1.73168 | 77.21369 | 35868 ft | 505 kts | 315° |
| 2026-05-08 05:55 | 1.77949 | 77.16228 | 35865 ft | 505 kts | 315° |
| 2026-05-08 05:55 | 1.82748 | 77.11067 | 35865 ft | 504 kts | 315° |
| 2026-05-08 05:56 | 1.87508 | 77.05948 | 35864 ft | 504 kts | 315° |
| 2026-05-08 05:56 | 1.92293 | 77.00800 | 35867 ft | 504 kts | 315° |
| 2026-05-08 05:57 | 1.96848 | 76.95901 | 35866 ft | 505 kts | 315° |
| 2026-05-08 05:57 | 2.01602 | 76.90786 | 35865 ft | 505 kts | 315° |
| 2026-05-08 05:58 | 2.06400 | 76.85624 | 35869 ft | 505 kts | 315° |
| 2026-05-08 05:58 | 2.11158 | 76.80504 | 35865 ft | 505 kts | 315° |
| 2026-05-08 05:59 | 2.15948 | 76.75349 | 35866 ft | 505 kts | 315° |
| 2026-05-08 05:59 | 2.20713 | 76.70221 | 35866 ft | 505 kts | 315° |
| 2026-05-08 06:00 | 2.25507 | 76.65061 | 35866 ft | 506 kts | 315° |
| 2026-05-08 06:00 | 2.30296 | 76.59906 | 35869 ft | 507 kts | 315° |
| 2026-05-08 06:01 | 2.35105 | 76.54728 | 35870 ft | 508 kts | 315° |
| 2026-05-08 06:01 | 2.39900 | 76.49566 | 35868 ft | 508 kts | 314° |
| 2026-05-08 06:02 | 2.44719 | 76.44377 | 35863 ft | 508 kts | 314° |
| 2026-05-08 06:02 | 2.49503 | 76.39224 | 35867 ft | 507 kts | 314° |
| 2026-05-08 06:03 | 2.54309 | 76.34047 | 35862 ft | 506 kts | 314° |
| 2026-05-08 06:03 | 2.59097 | 76.28889 | 35860 ft | 505 kts | 314° |
| 2026-05-08 06:04 | 2.63857 | 76.23762 | 35862 ft | 503 kts | 314° |
| 2026-05-08 06:04 | 2.68624 | 76.18625 | 35867 ft | 501 kts | 314° |
| 2026-05-08 06:05 | 2.73360 | 76.13522 | 35864 ft | 500 kts | 314° |
| 2026-05-08 06:05 | 2.78067 | 76.08449 | 35868 ft | 499 kts | 314° |
| 2026-05-08 06:06 | 2.82798 | 76.03350 | 35866 ft | 499 kts | 314° |
| 2026-05-08 06:06 | 2.87290 | 75.98508 | 35867 ft | 500 kts | 314° |
| 2026-05-08 06:07 | 2.92031 | 75.93397 | 35865 ft | 501 kts | 314° |
| 2026-05-08 06:07 | 2.96795 | 75.88260 | 35861 ft | 502 kts | 314° |
| 2026-05-08 06:08 | 3.01523 | 75.83161 | 35862 ft | 502 kts | 314° |
| 2026-05-08 06:08 | 3.06248 | 75.78065 | 35861 ft | 502 kts | 314° |
| 2026-05-08 06:09 | 3.11018 | 75.72919 | 35864 ft | 502 kts | 314° |
| 2026-05-08 06:09 | 3.15743 | 75.67821 | 35861 ft | 501 kts | 314° |
| 2026-05-08 06:10 | 3.20494 | 75.62695 | 35862 ft | 501 kts | 314° |
| 2026-05-08 06:10 | 3.25234 | 75.57579 | 35863 ft | 501 kts | 314° |
| 2026-05-08 06:11 | 3.29956 | 75.52483 | 35861 ft | 501 kts | 314° |
| 2026-05-08 06:11 | 3.34700 | 75.47362 | 35857 ft | 501 kts | 314° |
| 2026-05-08 06:12 | 3.39436 | 75.42249 | 35865 ft | 502 kts | 315° |
| 2026-05-08 06:12 | 3.44182 | 75.37123 | 35864 ft | 504 kts | 315° |
| 2026-05-08 06:13 | 3.48973 | 75.31950 | 35867 ft | 506 kts | 315° |
| 2026-05-08 06:13 | 3.53767 | 75.26771 | 35865 ft | 507 kts | 315° |
| 2026-05-08 06:14 | 3.58557 | 75.21596 | 35862 ft | 508 kts | 315° |
| 2026-05-08 06:14 | 3.63363 | 75.16403 | 35864 ft | 507 kts | 315° |
| 2026-05-08 06:15 | 3.68137 | 75.11243 | 35860 ft | 507 kts | 315° |
| 2026-05-08 06:15 | 3.72920 | 75.06073 | 35868 ft | 506 kts | 314° |
| 2026-05-08 06:16 | 3.77707 | 75.00897 | 35857 ft | 504 kts | 314° |
| 2026-05-08 06:16 | 3.82254 | 74.95980 | 35860 ft | 503 kts | 314° |
| 2026-05-08 06:17 | 3.89366 | 74.88289 | 35858 ft | 502 kts | 314° |
| 2026-05-08 06:17 | 3.94118 | 74.83149 | 35861 ft | 502 kts | 314° |
| 2026-05-08 06:18 | 3.98843 | 74.78037 | 35861 ft | 502 kts | 314° |
| 2026-05-08 06:18 | 4.03594 | 74.72896 | 35861 ft | 503 kts | 314° |
| 2026-05-08 06:19 | 4.08325 | 74.67775 | 35861 ft | 503 kts | 314° |
| 2026-05-08 06:19 | 4.13092 | 74.62615 | 35862 ft | 504 kts | 314° |
| 2026-05-08 06:20 | 4.17842 | 74.57472 | 35862 ft | 504 kts | 314° |
| 2026-05-08 06:20 | 4.22608 | 74.52310 | 35859 ft | 504 kts | 314° |
| 2026-05-08 06:21 | 4.27368 | 74.47154 | 35861 ft | 504 kts | 314° |
| 2026-05-08 06:21 | 4.32126 | 74.42000 | 35860 ft | 504 kts | 314° |
| 2026-05-08 06:22 | 4.36904 | 74.36822 | 35860 ft | 504 kts | 314° |
| 2026-05-08 06:22 | 4.41654 | 74.31673 | 35867 ft | 504 kts | 314° |
| 2026-05-08 06:23 | 4.46424 | 74.26502 | 35864 ft | 504 kts | 314° |
| 2026-05-08 06:23 | 4.51152 | 74.21376 | 35861 ft | 503 kts | 314° |
| 2026-05-08 06:24 | 4.55109 | 74.17085 | 35860 ft | 502 kts | 314° |